Time;durP1;ratioP1;P1;durP2;ratioP2;P2;SDS_P1;SDS_P2;PMS_P1;PMS_P2;Temp;Humidity;BMP_temperature;BMP_pressure;BME280_temperature;BME280_humidity;BME280_pressure;Samples;Min_cycle;Max_cycle;Signal;HPM_P1;HPM_P2
2023/07/08 00:03:04;;;;;;;8.70;5.00;;;;;;;15.77;78.76;101105.20;221420;1265;140895;-92
2023/07/08 00:08:11;;;;;;;10.50;5.20;;;;;;;15.72;79.12;101098.92;221976;1268;138788;-92
2023/07/08 00:13:18;;;;;;;10.10;5.30;;;;;;;15.65;79.27;101100.75;221539;1267;140929;-93
2023/07/08 00:18:19;;;;;;;12.00;5.40;;;;;;;15.59;79.57;101100.42;222021;1266;137734;-93
2023/07/08 00:23:25;;;;;;;10.70;5.20;;;;;;;15.54;79.92;101103.43;221429;1268;139853;-92
2023/07/08 00:28:27;;;;;;;9.30;5.20;;;;;;;15.49;80.34;101099.14;222398;1266;97829;-93
2023/07/08 00:33:32;;;;;;;9.10;5.30;;;;;;;15.42;80.62;101103.80;221451;1265;141882;-93
2023/07/08 00:38:34;;;;;;;9.00;4.80;;;;;;;15.36;80.64;101102.77;222041;1266;138980;-93
2023/07/08 00:43:58;;;;;;;8.50;4.90;;;;;;;15.31;80.87;101101.84;221448;1266;140759;-92
2023/07/08 00:55:06;;;;;;;12.20;5.30;;;;;;;15.19;81.94;101100.38;221129;1270;138894;-93
2023/07/08 01:00:17;;;;;;;12.80;5.00;;;;;;;15.13;81.77;101097.83;221412;1264;140641;-93
2023/07/08 01:05:22;;;;;;;12.10;5.60;;;;;;;15.08;81.88;101097.82;222346;1264;110999;-93
2023/07/08 01:11:21;;;;;;;9.70;5.50;;;;;;;15.03;82.19;101094.70;221496;1267;140467;-93
2023/07/08 01:16:26;;;;;;;11.60;5.40;;;;;;;14.97;82.54;101093.02;222303;1264;112746;-93
2023/07/08 01:21:41;;;;;;;9.40;5.10;;;;;;;14.92;83.12;101085.73;221511;1266;140631;-92
2023/07/08 01:26:49;;;;;;;9.80;5.30;;;;;;;14.87;83.39;101085.38;221922;1264;138840;-93
2023/07/08 01:31:55;;;;;;;12.90;5.70;;;;;;;14.82;83.55;101086.62;221738;1264;141224;-93
2023/07/08 01:37:16;;;;;;;8.90;4.70;;;;;;;14.77;83.63;101087.86;221981;1263;138832;-94
2023/07/08 01:42:34;;;;;;;10.10;4.90;;;;;;;14.72;83.92;101087.61;221640;1266;139930;-93
2023/07/08 01:47:36;;;;;;;10.40;4.80;;;;;;;14.67;84.02;101087.17;222225;1268;138856;-93
2023/07/08 01:53:24;;;;;;;10.70;5.30;;;;;;;14.60;84.27;101075.52;221563;1266;140121;-92
2023/07/08 01:58:42;;;;;;;9.20;4.30;;;;;;;14.56;84.47;101075.09;222390;1268;108065;-93
2023/07/08 02:03:48;;;;;;;10.40;5.40;;;;;;;14.51;84.66;101076.73;221588;1268;143070;-92
2023/07/08 02:08:54;;;;;;;9.00;5.10;;;;;;;14.45;84.90;101072.82;222262;1267;138691;-92
2023/07/08 02:14:23;;;;;;;10.70;5.60;;;;;;;14.38;84.98;101068.20;221707;1268;141548;-92
2023/07/08 02:19:27;;;;;;;9.30;4.70;;;;;;;14.35;85.54;101076.32;221410;1266;139640;-93
2023/07/08 02:24:53;;;;;;;9.90;5.10;;;;;;;14.31;85.62;101081.35;221989;1264;138857;-93
2023/07/08 02:35:52;;;;;;;11.00;5.00;;;;;;;14.23;86.26;101075.45;221014;1274;138862;-92
2023/07/08 02:40:56;;;;;;;9.00;4.70;;;;;;;14.19;86.91;101078.73;220623;1271;142062;-93
2023/07/08 02:46:19;;;;;;;8.50;4.90;;;;;;;14.17;87.35;101080.45;221199;1270;137684;-93
2023/07/08 02:51:20;;;;;;;9.20;4.90;;;;;;;14.13;87.25;101080.50;220690;1274;139991;-93
2023/07/08 02:56:22;;;;;;;10.40;5.20;;;;;;;14.10;87.30;101078.11;221107;1271;139484;-94
2023/07/08 03:01:23;;;;;;;9.70;5.40;;;;;;;14.07;88.01;101076.42;220559;1274;140536;-93
2023/07/08 03:06:23;;;;;;;12.10;5.80;;;;;;;14.05;87.31;101077.20;221459;1267;138684;-93
2023/07/08 03:11:24;;;;;;;10.90;6.40;;;;;;;14.04;88.04;101076.33;221382;1268;141022;-93
2023/07/08 03:16:25;;;;;;;9.70;5.10;;;;;;;14.01;87.71;101076.15;221991;1264;138947;-93
2023/07/08 03:21:25;;;;;;;9.00;4.70;;;;;;;14.00;88.41;101073.14;221469;1266;139664;-92
2023/07/08 03:26:26;;;;;;;12.00;5.80;;;;;;;13.99;88.94;101074.07;221965;1264;138673;-93
2023/07/08 03:31:27;;;;;;;21.10;6.40;;;;;;;14.01;89.18;101077.56;221409;1268;139855;-93
2023/07/08 03:36:28;;;;;;;9.60;5.00;;;;;;;14.01;89.19;101075.42;221778;1266;138993;-93
2023/07/08 03:41:28;;;;;;;9.70;6.00;;;;;;;14.03;88.93;101074.81;221557;1269;140122;-93
2023/07/08 03:46:29;;;;;;;17.20;7.50;;;;;;;14.05;87.96;101078.55;222037;1264;138829;-92
2023/07/08 03:51:35;;;;;;;13.70;7.10;;;;;;;14.08;87.49;101077.45;221466;1267;139715;-93
2023/07/08 03:56:35;;;;;;;11.30;6.40;;;;;;;14.15;87.80;101074.02;221922;1266;138917;-92
2023/07/08 04:01:40;;;;;;;15.00;7.40;;;;;;;14.18;87.50;101075.89;221350;1268;140429;-93
2023/07/08 04:06:41;;;;;;;14.00;8.40;;;;;;;14.25;87.35;101077.04;221817;1269;138884;-93
2023/07/08 04:11:41;;;;;;;14.40;8.70;;;;;;;14.31;87.18;101073.54;221310;1267;140820;-93
2023/07/08 04:16:51;;;;;;;12.70;7.40;;;;;;;14.42;86.80;101071.94;222400;1264;97943;-95
2023/07/08 04:21:51;;;;;;;15.30;8.40;;;;;;;14.65;87.15;101066.13;221487;1267;140100;-94
2023/07/08 04:26:52;;;;;;;15.50;8.30;;;;;;;14.80;85.78;101064.52;221808;1264;139224;-93
2023/07/08 04:31:53;;;;;;;13.60;7.40;;;;;;;15.05;85.21;101058.59;221348;1264;140649;-93
2023/07/08 04:36:53;;;;;;;11.30;7.10;;;;;;;15.29;84.47;101056.29;221967;1264;138903;-92
2023/07/08 04:41:53;;;;;;;13.20;7.50;;;;;;;15.47;83.98;101051.50;221369;1264;141359;-93
2023/07/08 04:46:56;;;;;;;12.60;6.80;;;;;;;15.72;83.53;101052.47;222029;1264;97854;-93
2023/07/08 04:51:58;;;;;;;11.80;6.70;;;;;;;15.91;82.75;101047.94;221434;1267;140444;-94
2023/07/08 04:56:58;;;;;;;11.60;6.70;;;;;;;16.15;82.22;101046.23;222028;1267;139255;-93
2023/07/08 05:02:00;;;;;;;13.50;7.10;;;;;;;16.30;81.70;101051.85;221481;1267;140521;-94
2023/07/08 05:07:01;;;;;;;9.90;6.50;;;;;;;16.46;81.36;101049.92;222294;1264;139384;-93
2023/07/08 05:12:01;;;;;;;15.00;6.80;;;;;;;16.70;81.11;101052.47;221361;1264;141468;-93
2023/07/08 05:17:02;;;;;;;11.40;7.30;;;;;;;16.99;80.58;101052.25;222144;1267;97926;-93
2023/07/08 05:22:03;;;;;;;11.40;6.60;;;;;;;17.32;80.49;101048.74;221407;1267;139669;-94
2023/07/08 05:27:04;;;;;;;13.50;7.40;;;;;;;17.70;80.36;101049.91;221949;1264;138935;-93
2023/07/08 05:32:05;;;;;;;13.50;6.40;;;;;;;18.25;79.26;101050.69;221370;1267;140568;-93
2023/07/08 05:37:05;;;;;;;13.70;5.80;;;;;;;18.95;78.28;101054.66;221999;1267;139261;-93
2023/07/08 05:42:06;;;;;;;11.80;4.90;;;;;;;19.79;74.86;101049.13;221315;1264;140855;-95
2023/07/08 05:47:07;;;;;;;8.00;4.60;;;;;;;20.73;71.08;101049.95;221953;1264;97973;-95
2023/07/08 05:52:10;;;;;;;8.40;5.10;;;;;;;21.71;68.04;101046.64;221403;1264;138492;-95
2023/07/08 05:57:11;;;;;;;11.90;5.10;;;;;;;22.67;66.82;101044.89;221997;1264;138577;-95
2023/07/08 06:02:12;;;;;;;13.50;5.30;;;;;;;23.59;62.69;101047.48;221781;1264;140218;-94
2023/07/08 06:07:13;;;;;;;8.60;4.50;;;;;;;24.39;59.66;101044.34;222046;1264;138186;-96
2023/07/08 06:12:14;;;;;;;9.10;3.40;;;;;;;25.14;57.69;101048.46;221321;1264;139273;-95
2023/07/08 06:17:15;;;;;;;8.90;4.40;;;;;;;25.87;55.69;101049.39;221915;1269;97981;-93
2023/07/08 06:22:16;;;;;;;10.10;4.50;;;;;;;26.42;50.72;101054.27;221456;1264;139256;-96
2023/07/08 06:27:16;;;;;;;11.20;5.10;;;;;;;26.82;48.89;101046.36;222205;1264;138614;-94
2023/07/08 06:32:17;;;;;;;8.50;4.00;;;;;;;27.06;46.79;101043.29;221334;1267;140124;-96
2023/07/08 06:37:17;;;;;;;12.30;4.90;;;;;;;27.32;46.22;101047.79;221875;1266;138138;-95
2023/07/08 06:42:18;;;;;;;7.70;3.70;;;;;;;27.67;45.80;101051.41;221641;1267;141561;-96
2023/07/08 06:47:20;;;;;;;11.50;3.90;;;;;;;28.22;46.64;101053.23;222255;1264;97850;-96
2023/07/08 06:52:21;;;;;;;8.90;3.20;;;;;;;28.74;43.69;101051.29;221575;1266;139648;-95
2023/07/08 06:57:22;;;;;;;7.60;3.00;;;;;;;29.31;44.30;101045.49;221850;1264;137940;-96
2023/07/08 07:02:23;;;;;;;5.70;2.90;;;;;;;29.82;42.56;101043.41;221441;1264;140319;-96
2023/07/08 07:07:24;;;;;;;6.80;3.00;;;;;;;30.04;40.50;101048.66;221908;1264;138121;-96
2023/07/08 07:12:26;;;;;;;9.80;3.20;;;;;;;30.29;39.98;101043.37;221210;1264;139424;-91
2023/07/08 07:17:27;;;;;;;6.30;3.50;;;;;;;30.53;40.30;101039.79;222209;1268;97924;-93
2023/07/08 07:22:28;;;;;;;6.60;3.30;;;;;;;30.94;39.83;101038.16;221613;1264;139058;-93
2023/07/08 07:27:29;;;;;;;8.10;2.80;;;;;;;31.27;38.02;101039.21;222091;1264;137247;-91
2023/07/08 07:32:31;;;;;;;6.50;2.80;;;;;;;31.41;38.20;101042.90;221630;1265;139447;-93
2023/07/08 07:37:32;;;;;;;4.80;2.90;;;;;;;31.66;37.41;101046.45;221811;1264;137956;-95
2023/07/08 07:42:32;;;;;;;5.40;2.90;;;;;;;31.84;36.70;101050.06;221315;1267;140840;-93
2023/07/08 07:47:33;;;;;;;6.60;3.10;;;;;;;32.00;35.80;101049.16;221940;1264;138146;-91
2023/07/08 07:53:31;;;;;;;6.20;3.20;;;;;;;32.38;36.18;101049.94;221428;1264;140104;-94
2023/07/08 07:58:33;;;;;;;8.40;3.00;;;;;;;32.80;35.78;101055.21;221815;1266;97831;-91
2023/07/08 08:09:18;;;;;;;7.30;3.10;;;;;;;33.59;34.52;101060.04;220977;1264;141438;-90
2023/07/08 08:14:18;;;;;;;5.70;3.10;;;;;;;33.98;33.32;101061.41;221884;1264;138097;-91
2023/07/08 08:19:22;;;;;;;5.50;2.80;;;;;;;34.34;33.38;101059.52;221248;1264;139417;-92
2023/07/08 08:24:44;;;;;;;6.90;2.90;;;;;;;34.58;31.50;101055.88;220947;1276;139182;-92
2023/07/08 08:30:05;;;;;;;5.80;2.60;;;;;;;34.80;31.11;101056.91;220229;1277;140459;-92
2023/07/08 08:35:10;;;;;;;6.10;2.70;;;;;;;35.20;31.02;101054.98;221275;1267;98012;-94
2023/07/08 08:40:18;;;;;;;5.40;2.80;;;;;;;35.66;30.50;101055.12;220687;1271;139249;-91
2023/07/08 08:46:19;;;;;;;5.50;2.80;;;;;;;35.84;28.83;101053.48;221229;1271;138149;-90
2023/07/08 08:51:23;;;;;;;6.30;3.30;;;;;;;36.10;28.77;101050.73;220934;1270;139190;-92
2023/07/08 08:56:48;;;;;;;6.60;2.40;;;;;;;36.36;27.98;101051.06;221505;1267;138216;-90
2023/07/08 09:07:36;;;;;;;7.20;3.00;;;;;;;36.68;26.34;101053.95;221176;1264;137502;-89
2023/07/08 09:12:45;;;;;;;4.40;3.00;;;;;;;36.62;26.53;101054.11;221275;1268;139770;-92
2023/07/08 09:17:49;;;;;;;6.80;2.70;;;;;;;36.87;25.73;101047.70;221799;1264;137939;-93
2023/07/08 09:22:55;;;;;;;4.20;2.60;;;;;;;37.23;26.49;101049.08;221477;1264;138715;-92
2023/07/08 09:28:16;;;;;;;4.90;2.70;;;;;;;37.79;26.60;101046.25;221940;1264;137835;-90
2023/07/08 09:39:30;;;;;;;6.80;3.10;;;;;;;38.39;24.51;101040.41;221392;1265;140987;-88
2023/07/08 09:50:31;;;;;;;6.40;3.00;;;;;;;38.50;25.75;101023.89;221027;1268;139294;-94
2023/07/08 10:01:25;;;;;;;5.50;3.10;;;;;;;39.15;23.31;101019.80;220809;1271;138970;-90
2023/07/08 10:06:30;;;;;;;5.80;2.60;;;;;;;39.10;22.52;101011.51;221227;1272;138861;-92
2023/07/08 10:11:42;;;;;;;4.70;2.50;;;;;;;39.20;23.20;101012.71;220915;1271;139641;-88
2023/07/08 10:16:43;;;;;;;5.70;2.70;;;;;;;39.32;21.87;101017.41;221365;1272;97861;-90
2023/07/08 10:21:53;;;;;;;6.30;2.90;;;;;;;39.45;23.11;101016.05;220803;1268;139886;-89
2023/07/08 10:27:17;;;;;;;4.90;2.90;;;;;;;39.78;23.12;101011.94;221288;1268;138555;-91
2023/07/08 10:33:08;;;;;;;5.10;2.60;;;;;;;40.23;23.77;101000.98;221224;1264;139906;-93
2023/07/08 10:38:46;;;;;;;4.00;2.60;;;;;;;40.73;23.15;100998.38;221634;1264;395516;-94
2023/07/08 10:44:19;;;;;;;5.40;2.90;;;;;;;40.54;21.45;100985.05;221706;1264;139120;-92
2023/07/08 10:49:50;;;;;;;4.30;2.80;;;;;;;39.99;22.66;100980.58;221663;1264;138980;-90
2023/07/08 10:55:10;;;;;;;6.20;2.80;;;;;;;40.43;23.23;100981.16;222223;1264;136897;-89
2023/07/08 11:00:29;;;;;;;5.50;2.60;;;;;;;40.86;23.09;100981.77;221603;1264;140161;-93
2023/07/08 11:05:45;;;;;;;6.40;2.40;;;;;;;40.72;21.30;100978.31;222112;1264;97937;-91
2023/07/08 11:10:53;;;;;;;7.20;2.80;;;;;;;40.84;22.40;100975.79;221617;1264;139989;-92
2023/07/08 11:16:05;;;;;;;6.40;2.90;;;;;;;40.88;20.56;100967.62;221889;1264;138116;-92
2023/07/08 11:21:31;;;;;;;5.90;2.80;;;;;;;40.40;20.68;100962.86;221375;1264;140263;-93
2023/07/08 11:26:41;;;;;;;7.50;3.00;;;;;;;40.46;21.13;100954.66;222214;1264;138101;-93
2023/07/08 11:31:42;;;;;;;7.80;3.00;;;;;;;39.89;19.45;100948.17;221721;1264;139286;-95
2023/07/08 11:36:46;;;;;;;5.20;3.10;;;;;;;39.14;20.64;100946.80;221990;1264;138001;-90
2023/07/08 11:41:47;;;;;;;5.80;2.70;;;;;;;39.19;22.00;100946.08;221332;1264;141010;-90
2023/07/08 11:46:55;;;;;;;5.00;2.50;;;;;;;39.77;22.75;100943.66;222080;1264;97857;-91
2023/07/08 11:51:58;;;;;;;4.90;2.50;;;;;;;39.77;22.10;100940.38;221507;1266;140512;-91
2023/07/08 11:56:58;;;;;;;3.90;2.60;;;;;;;38.90;22.96;100937.34;221858;1264;137045;-92
2023/07/08 12:02:19;;;;;;;6.40;2.60;;;;;;;38.39;23.09;100930.66;221562;1266;139098;-91
2023/07/08 12:07:30;;;;;;;4.80;3.00;;;;;;;37.57;24.35;100918.65;222128;1268;138087;-88
2023/07/08 12:12:34;;;;;;;7.40;2.70;;;;;;;37.80;23.81;100914.68;221476;1267;139747;-92
2023/07/08 12:17:37;;;;;;;4.40;3.00;;;;;;;38.32;21.91;100917.52;222192;1263;97932;-89
2023/07/08 12:22:39;;;;;;;5.70;2.70;;;;;;;38.00;21.31;100918.06;221287;1264;138816;-88
2023/07/08 12:27:39;;;;;;;4.80;2.40;;;;;;;38.16;21.83;100913.80;222282;1264;137832;-90
2023/07/08 12:32:40;;;;;;;5.90;3.20;;;;;;;38.35;23.04;100907.77;221662;1265;140269;-86
2023/07/08 12:37:41;;;;;;;6.40;3.00;;;;;;;38.23;21.79;100907.67;221857;1265;139873;-87
2023/07/08 12:42:41;;;;;;;5.70;3.10;;;;;;;38.27;21.62;100907.42;221670;1268;141704;-89
2023/07/08 12:47:43;;;;;;;4.30;2.50;;;;;;;38.22;21.92;100907.81;222201;1264;97918;-87
2023/07/08 12:52:45;;;;;;;3.90;2.40;;;;;;;38.57;23.76;100897.98;221613;1264;140171;-92
2023/07/08 12:57:50;;;;;;;5.20;2.90;;;;;;;38.94;22.52;100889.31;222051;1264;139585;-88
2023/07/08 13:02:57;;;;;;;5.40;3.10;;;;;;;38.87;22.08;100879.63;221493;1264;139417;-87
2023/07/08 13:07:58;;;;;;;5.20;2.30;;;;;;;38.50;21.11;100882.96;221927;1264;138086;-90
2023/07/08 13:13:04;;;;;;;6.40;2.60;;;;;;;38.13;20.96;100872.01;221770;1264;138955;-94
2023/07/08 13:18:04;;;;;;;4.70;2.70;;;;;;;37.93;22.73;100870.25;222258;1267;138503;-89
2023/07/08 13:23:05;;;;;;;4.30;2.70;;;;;;;37.78;22.83;100868.27;221751;1264;139249;-92
2023/07/08 13:28:19;;;;;;;3.70;2.40;;;;;;;37.78;23.50;100865.39;221967;1263;137926;-94
2023/07/08 13:33:21;;;;;;;7.40;2.80;;;;;;;37.65;23.19;100855.46;221595;1264;139829;-92
2023/07/08 13:38:25;;;;;;;5.40;2.70;;;;;;;37.67;24.15;100857.86;222273;1264;138400;-89
2023/07/08 13:43:31;;;;;;;4.50;2.60;;;;;;;37.09;22.70;100861.34;221650;1267;141797;-93
2023/07/08 13:48:42;;;;;;;4.30;2.20;;;;;;;36.52;22.59;100862.30;222213;1264;138012;-91
2023/07/08 13:53:47;;;;;;;4.50;2.60;;;;;;;36.26;22.95;100858.36;221645;1264;138644;-93
2023/07/08 13:58:52;;;;;;;4.50;2.60;;;;;;;36.18;23.41;100848.39;222180;1264;97841;-94
2023/07/08 14:03:55;;;;;;;6.20;2.80;;;;;;;36.43;23.93;100852.85;221780;1263;144428;-94
2023/07/08 14:08:59;;;;;;;4.50;2.60;;;;;;;36.47;23.61;100844.33;221550;1264;140038;-92
2023/07/08 14:14:00;;;;;;;4.50;2.60;;;;;;;36.27;23.51;100848.04;221931;1265;138131;-90
2023/07/08 14:19:05;;;;;;;4.40;2.40;;;;;;;36.30;24.19;100845.50;221405;1268;140174;-94
2023/07/08 14:24:33;;;;;;;6.10;2.60;;;;;;;36.24;23.96;100841.79;222335;1267;138379;-89
2023/07/08 14:29:35;;;;;;;5.10;2.80;;;;;;;36.20;22.44;100833.29;221676;1268;139568;-90
2023/07/08 14:34:36;;;;;;;5.30;2.70;;;;;;;35.94;21.54;100835.45;222233;1265;137832;-95
2023/07/08 14:39:36;;;;;;;6.20;3.10;;;;;;;35.66;24.02;100839.48;221660;1264;138952;-91
2023/07/08 14:44:37;;;;;;;5.20;3.10;;;;;;;35.41;22.97;100836.18;221945;1265;138216;-91
2023/07/08 14:49:38;;;;;;;5.40;3.00;;;;;;;35.31;22.81;100831.93;221528;1263;138882;-89
2023/07/08 14:54:38;;;;;;;4.00;2.60;;;;;;;34.92;23.43;100823.54;222211;1265;139366;-92
2023/07/08 14:59:41;;;;;;;5.10;3.10;;;;;;;34.78;26.42;100817.18;221828;1266;139781;-93
2023/07/08 15:04:42;;;;;;;4.00;2.50;;;;;;;34.91;23.76;100813.46;222002;1264;137669;-94
2023/07/08 15:09:44;;;;;;;7.10;2.90;;;;;;;34.74;24.60;100807.39;221685;1268;141616;-91
2023/07/08 15:14:44;;;;;;;5.20;3.00;;;;;;;34.86;26.88;100811.45;222174;1265;138839;-92
2023/07/08 15:19:45;;;;;;;8.10;3.20;;;;;;;34.74;25.11;100806.35;221734;1266;140290;-90
2023/07/08 15:24:45;;;;;;;7.10;3.60;;;;;;;34.46;26.25;100807.23;222041;1266;139137;-93
2023/07/08 15:29:46;;;;;;;5.70;3.30;;;;;;;34.30;25.55;100800.95;221938;1264;140737;-91
2023/07/08 15:34:46;;;;;;;6.10;3.70;;;;;;;34.13;25.80;100804.52;222024;1264;138732;-92
2023/07/08 15:39:46;;;;;;;6.40;3.20;;;;;;;33.68;24.97;100808.16;221748;1266;141727;-88
2023/07/08 15:44:51;;;;;;;6.10;3.20;;;;;;;33.36;24.67;100804.71;222250;1266;138083;-90
2023/07/08 15:49:52;;;;;;;6.60;3.50;;;;;;;33.08;25.54;100800.02;221372;1264;139680;-89
2023/07/08 15:54:52;;;;;;;5.60;3.40;;;;;;;32.79;26.42;100798.28;222006;1265;138363;-89
2023/07/08 15:59:53;;;;;;;6.40;3.00;;;;;;;32.43;27.08;100797.31;221684;1266;138945;-88
2023/07/08 16:04:53;;;;;;;8.20;3.60;;;;;;;31.81;27.64;100798.40;222121;1265;98521;-93
2023/07/08 16:09:53;;;;;;;5.70;2.70;;;;;;;31.41;28.58;100802.30;222996;1264;139768;-90
2023/07/08 16:14:54;;;;;;;6.40;3.50;;;;;;;31.27;28.89;100801.84;223705;1264;138054;-89
2023/07/08 16:19:54;;;;;;;6.70;3.30;;;;;;;31.04;30.39;100802.89;223257;1264;139988;-89
2023/07/08 16:24:55;;;;;;;11.10;4.10;;;;;;;30.67;31.02;100802.95;223686;1264;138064;-90
2023/07/08 16:29:55;;;;;;;6.80;3.50;;;;;;;30.45;32.77;100802.45;223042;1266;140249;-88
2023/07/08 16:34:56;;;;;;;5.90;3.80;;;;;;;30.25;32.90;100801.00;223636;1264;96818;-89
2023/07/08 16:39:57;;;;;;;6.80;3.60;;;;;;;30.05;32.20;100796.55;223113;1264;140579;-90
2023/07/08 16:44:58;;;;;;;6.80;3.30;;;;;;;29.81;32.52;100792.18;223586;1264;138773;-90
2023/07/08 16:49:58;;;;;;;6.50;3.40;;;;;;;29.72;32.35;100795.59;223254;1263;140656;-90
2023/07/08 16:54:59;;;;;;;6.50;3.10;;;;;;;29.71;31.41;100800.59;223768;1264;138029;-90
2023/07/08 16:59:59;;;;;;;5.40;3.30;;;;;;;29.61;31.49;100799.77;223132;1265;141341;-87
2023/07/08 17:05:00;;;;;;;6.00;3.20;;;;;;;29.33;33.76;100802.48;223388;1269;96457;-90
2023/07/08 17:10:00;;;;;;;9.30;3.20;;;;;;;29.04;33.12;100795.14;222887;1265;140599;-88
2023/07/08 17:15:01;;;;;;;6.60;3.30;;;;;;;28.81;34.11;100796.13;223638;1268;138113;-91
2023/07/08 17:20:16;;;;;;;7.20;3.40;;;;;;;28.59;34.96;100794.60;223036;1266;141829;-90
2023/07/08 17:25:19;;;;;;;9.70;4.10;;;;;;;28.38;35.85;100789.73;223361;1265;138320;-91
2023/07/08 17:30:21;;;;;;;5.80;3.00;;;;;;;28.17;35.94;100788.90;222871;1265;142139;-90
2023/07/08 17:35:23;;;;;;;6.50;3.30;;;;;;;28.05;36.20;100787.95;223767;1268;109071;-89
2023/07/08 17:40:26;;;;;;;5.50;3.20;;;;;;;27.89;36.22;100784.85;222898;1265;140694;-91
2023/07/08 17:45:38;;;;;;;7.80;3.30;;;;;;;27.75;36.85;100788.53;223265;1265;138710;-88
2023/07/08 17:50:39;;;;;;;7.80;3.30;;;;;;;27.60;36.81;100793.02;222757;1265;140440;-89
2023/07/08 17:55:40;;;;;;;8.60;4.30;;;;;;;27.48;37.17;100794.25;223417;1264;138232;-90
2023/07/08 18:00:41;;;;;;;7.40;3.60;;;;;;;27.35;38.14;100797.19;223023;1264;141387;-89
2023/07/08 18:05:41;;;;;;;7.70;3.30;;;;;;;27.22;38.48;100796.65;223620;1264;96440;-91
2023/07/08 18:10:42;;;;;;;7.30;3.50;;;;;;;27.10;38.67;100799.75;222905;1265;138917;-89
2023/07/08 18:15:42;;;;;;;8.10;3.80;;;;;;;26.97;39.57;100799.24;223429;1265;138673;-91
2023/07/08 18:20:51;;;;;;;6.90;3.50;;;;;;;26.81;40.78;100804.19;222841;1265;140312;-90
2023/07/08 18:25:53;;;;;;;7.70;3.50;;;;;;;26.62;40.76;100803.23;223540;1265;138568;-95
2023/07/08 18:30:53;;;;;;;10.80;3.40;;;;;;;26.43;40.90;100804.31;223052;1265;141069;-93
2023/07/08 18:35:54;;;;;;;7.20;3.80;;;;;;;26.22;41.33;100805.38;223391;1266;139128;-92
2023/07/08 18:40:55;;;;;;;15.90;4.60;;;;;;;25.99;42.29;100804.27;222868;1265;140565;-90
2023/07/08 18:45:56;;;;;;;10.90;4.80;;;;;;;25.74;42.79;100808.23;223312;1265;138568;-91
2023/07/08 18:50:57;;;;;;;10.20;4.40;;;;;;;25.50;43.47;100808.51;222835;1265;140610;-89
2023/07/08 18:55:57;;;;;;;11.00;4.50;;;;;;;25.21;45.19;100815.40;223409;1265;138396;-90
2023/07/08 19:00:58;;;;;;;9.40;4.60;;;;;;;24.91;46.35;100831.38;222778;1265;140145;-90
2023/07/08 19:05:58;;;;;;;9.40;4.00;;;;;;;24.64;45.95;100842.08;223423;1265;138223;-88
2023/07/08 19:11:00;;;;;;;11.00;4.90;;;;;;;24.34;46.60;100852.39;222987;1265;140525;-88
2023/07/08 19:16:00;;;;;;;7.90;4.10;;;;;;;24.14;46.87;100857.02;223405;1265;138093;-90
2023/07/08 19:21:00;;;;;;;6.10;3.50;;;;;;;24.04;47.09;100860.88;222901;1266;140130;-91
2023/07/08 19:26:01;;;;;;;8.60;4.10;;;;;;;23.93;47.03;100870.42;223657;1265;138178;-90
2023/07/08 19:31:02;;;;;;;8.60;4.30;;;;;;;23.80;47.57;100875.96;222834;1265;140176;-91
2023/07/08 19:36:05;;;;;;;8.30;4.40;;;;;;;23.64;48.06;100878.77;223392;1265;139019;-91
2023/07/08 19:41:11;;;;;;;6.70;3.60;;;;;;;23.45;48.87;100885.80;222839;1265;140286;-91
2023/07/08 19:46:15;;;;;;;10.00;4.20;;;;;;;23.30;49.25;100887.27;223206;1269;138317;-90
2023/07/08 19:51:16;;;;;;;7.40;4.10;;;;;;;23.15;49.95;100892.48;222985;1265;139205;-91
2023/07/08 19:56:21;;;;;;;9.60;4.50;;;;;;;22.97;50.72;100900.35;223458;1265;138721;-90
2023/07/08 20:01:22;;;;;;;10.50;4.00;;;;;;;22.82;51.14;100905.02;222841;1268;139704;-88
2023/07/08 20:06:24;;;;;;;8.40;4.10;;;;;;;22.69;51.76;100906.63;223361;1265;138642;-88
2023/07/08 20:11:25;;;;;;;8.40;4.00;;;;;;;22.55;52.11;100914.19;222896;1265;140985;-89
2023/07/08 20:16:27;;;;;;;8.50;3.60;;;;;;;22.44;52.46;100912.04;223377;1265;138000;-90
2023/07/08 20:21:30;;;;;;;10.40;3.80;;;;;;;22.29;53.13;100911.98;222775;1265;140778;-87
2023/07/08 20:26:34;;;;;;;9.30;4.10;;;;;;;22.13;53.58;100917.66;223658;1266;138149;-87
2023/07/08 20:31:35;;;;;;;8.80;4.20;;;;;;;21.98;54.35;100921.04;223071;1265;139323;-89
2023/07/08 20:36:36;;;;;;;8.90;3.80;;;;;;;21.84;54.57;100924.95;223419;1268;138551;-88
2023/07/08 20:41:37;;;;;;;10.00;4.00;;;;;;;21.73;54.86;100927.83;222961;1265;139627;-91
2023/07/08 20:46:38;;;;;;;7.80;3.70;;;;;;;21.60;54.86;100928.67;223330;1265;138444;-88
2023/07/08 20:51:38;;;;;;;12.70;4.40;;;;;;;21.49;54.90;100929.44;222866;1265;140963;-87
2023/07/08 20:56:39;;;;;;;8.20;4.00;;;;;;;21.36;55.74;100937.70;223392;1265;138047;-86
2023/07/08 21:01:39;;;;;;;10.60;4.40;;;;;;;21.24;56.12;100940.31;222898;1266;140370;-88
2023/07/08 21:06:40;;;;;;;10.10;4.80;;;;;;;21.11;56.86;100943.03;223373;1265;139585;-87
2023/07/08 21:11:40;;;;;;;9.10;4.50;;;;;;;20.95;57.40;100947.25;222882;1265;139781;-87
2023/07/08 21:16:41;;;;;;;8.30;4.70;;;;;;;20.81;57.99;100953.54;223378;1265;138416;-88
2023/07/08 21:21:42;;;;;;;9.50;3.80;;;;;;;20.70;57.88;100953.70;222995;1264;139968;-88
2023/07/08 21:26:43;;;;;;;10.50;4.00;;;;;;;20.60;58.41;100956.57;223695;1264;138081;-88
2023/07/08 21:31:43;;;;;;;9.70;3.90;;;;;;;20.49;58.43;100960.31;223096;1266;139879;-87
2023/07/08 21:36:46;;;;;;;9.00;4.30;;;;;;;20.40;59.16;100958.35;223618;1265;138122;-83
2023/07/08 21:41:47;;;;;;;8.40;4.10;;;;;;;20.32;59.13;100956.36;222952;1265;140169;-83
2023/07/08 21:46:47;;;;;;;8.10;3.80;;;;;;;20.22;59.18;100954.88;223385;1266;137638;-83
2023/07/08 21:51:48;;;;;;;7.40;3.60;;;;;;;20.12;59.25;100954.27;222795;1266;140844;-85
2023/07/08 21:56:48;;;;;;;13.70;4.70;;;;;;;20.03;58.80;100962.73;223327;1266;137956;-84
2023/07/08 22:01:50;;;;;;;8.70;3.70;;;;;;;19.95;58.61;100960.23;222978;1266;140459;-84
2023/07/08 22:06:52;;;;;;;8.90;4.50;;;;;;;19.90;59.22;100964.17;223693;1264;139036;-84
2023/07/08 22:11:52;;;;;;;9.60;4.20;;;;;;;19.82;59.82;100968.85;223179;1268;140645;-84
2023/07/08 22:16:53;;;;;;;10.20;4.60;;;;;;;19.75;60.46;100969.14;223663;1268;138157;-84
2023/07/08 22:21:55;;;;;;;9.60;5.30;;;;;;;19.68;60.87;100977.18;223141;1266;139959;-85
2023/07/08 22:26:55;;;;;;;11.80;5.20;;;;;;;19.60;61.14;100977.23;223662;1265;138581;-85
2023/07/08 22:31:55;;;;;;;10.00;5.20;;;;;;;19.53;61.79;100984.60;223141;1264;140706;-84
2023/07/08 22:36:56;;;;;;;10.50;5.10;;;;;;;19.46;61.75;100986.48;223393;1266;333615;-85
2023/07/08 22:41:56;;;;;;;10.60;5.60;;;;;;;19.40;61.79;100982.27;223150;1265;150503;-85
2023/07/08 22:46:57;;;;;;;10.80;5.90;;;;;;;19.34;62.52;100979.49;223732;1264;96330;-85
2023/07/08 22:51:59;;;;;;;10.80;5.70;;;;;;;19.29;63.39;100974.31;223136;1264;140884;-87
2023/07/08 22:56:59;;;;;;;11.60;6.40;;;;;;;19.30;64.38;100987.61;223524;1267;138752;-85
2023/07/08 23:02:02;;;;;;;10.10;5.20;;;;;;;19.29;64.79;100988.27;222869;1267;141854;-82
2023/07/08 23:07:04;;;;;;;8.80;4.80;;;;;;;19.25;65.40;100991.61;223367;1269;139240;-86
2023/07/08 23:12:06;;;;;;;10.70;5.00;;;;;;;19.21;66.12;100985.10;222879;1265;140415;-84
2023/07/08 23:17:12;;;;;;;12.60;6.10;;;;;;;19.19;66.91;100979.08;223739;1264;96514;-83
2023/07/08 23:22:19;;;;;;;10.50;5.50;;;;;;;19.18;68.04;100979.58;223041;1266;139996;-85
2023/07/08 23:27:22;;;;;;;11.70;5.40;;;;;;;19.16;68.56;100980.05;223457;1267;137919;-85
2023/07/08 23:32:24;;;;;;;10.70;5.10;;;;;;;19.14;68.97;100982.73;223100;1265;140980;-84
2023/07/08 23:37:30;;;;;;;11.00;5.70;;;;;;;19.10;69.30;100981.84;223535;1265;138305;-85
2023/07/08 23:42:30;;;;;;;;;;;;;;;19.06;69.70;100986.67;223108;1267;140215;-85